createdAt,value
2022-08-24T00:02:09.687Z,2.22
2022-08-24T00:04:38.843Z,2.55
2022-08-24T00:07:06.180Z,2.72
2022-08-24T00:09:43.418Z,2.30
2022-08-24T00:12:16.627Z,2.78
2022-08-24T00:14:44.246Z,3.35
2022-08-24T00:17:11.581Z,3.03
2022-08-24T00:19:39.544Z,2.88
2022-08-24T00:22:06.712Z,3.00
2022-08-24T00:24:38.043Z,2.97
2022-08-24T00:27:06.914Z,2.83
2022-08-24T00:29:34.362Z,2.90
2022-08-24T00:32:01.118Z,2.95
2022-08-24T00:34:58.448Z,3.13
2022-08-24T00:37:31.030Z,2.40
2022-08-24T00:40:00.193Z,2.70
2022-08-24T00:42:29.744Z,2.38
2022-08-24T00:44:56.453Z,2.70
2022-08-24T00:47:33.475Z,2.70
2022-08-24T00:50:07.332Z,2.60
2022-08-24T00:52:48.514Z,2.72
2022-08-24T00:55:43.646Z,2.40
2022-08-24T00:58:17.222Z,2.20
2022-08-24T01:00:51.980Z,2.33
2022-08-24T01:03:18.970Z,2.20
2022-08-24T01:05:47.032Z,2.45
2022-08-24T01:08:15.806Z,2.17
2022-08-24T01:11:13.023Z,1.95
2022-08-24T01:13:43.854Z,2.30
2022-08-24T01:16:13.201Z,2.25
2022-08-24T01:18:52.557Z,2.13
2022-08-24T01:21:28.941Z,2.08
2022-08-24T01:24:00.087Z,2.58
2022-08-24T01:26:48.956Z,2.08
2022-08-24T01:29:29.096Z,2.35
2022-08-24T01:31:58.526Z,1.90
2022-08-24T01:34:25.723Z,2.22
2022-08-24T01:36:56.280Z,2.38
2022-08-24T01:39:28.971Z,2.55
2022-08-24T01:41:56.285Z,2.38
2022-08-24T01:44:25.180Z,2.20
2022-08-24T01:46:56.219Z,2.15
2022-08-24T01:49:29.185Z,1.90
2022-08-24T01:51:56.989Z,1.55
2022-08-24T01:54:24.481Z,1.90
2022-08-24T01:56:52.095Z,2.08
2022-08-24T01:59:20.310Z,1.90
2022-08-24T02:01:52.847Z,2.05
2022-08-24T02:04:20.264Z,1.90
2022-08-24T02:06:47.002Z,1.90
2022-08-24T02:09:13.669Z,1.80
2022-08-24T02:11:41.833Z,2.00
2022-08-24T02:14:08.993Z,1.88
2022-08-24T02:16:36.922Z,1.90
2022-08-24T02:19:03.618Z,2.00
2022-08-24T02:21:30.625Z,1.60
2022-08-24T02:23:57.460Z,1.92
2022-08-24T02:26:25.808Z,2.20
2022-08-24T02:28:57.170Z,1.98
2022-08-24T02:31:26.257Z,2.00
2022-08-24T02:33:53.018Z,2.20
2022-08-24T02:36:25.285Z,2.03
2022-08-24T02:38:54.879Z,2.10
2022-08-24T02:41:24.782Z,2.33
2022-08-24T02:43:52.511Z,1.90
2022-08-24T02:46:25.797Z,2.05
2022-08-24T02:48:57.554Z,1.73
2022-08-24T02:51:44.285Z,2.50
2022-08-24T02:54:13.164Z,2.30
2022-08-24T02:56:39.945Z,2.50
2022-08-24T02:59:07.382Z,2.47
2022-08-24T03:01:34.450Z,2.03
2022-08-24T03:04:01.296Z,2.42
2022-08-24T03:06:28.056Z,2.40
2022-08-24T03:08:56.638Z,2.78
2022-08-24T03:11:27.956Z,3.05
2022-08-24T03:13:59.019Z,2.55
2022-08-24T03:16:27.373Z,2.70
2022-08-24T03:18:54.237Z,2.88
2022-08-24T03:21:24.362Z,2.42
2022-08-24T03:23:51.100Z,2.60
2022-08-24T03:26:17.850Z,2.95
2022-08-24T03:28:45.233Z,2.58
2022-08-24T03:31:12.681Z,3.30
2022-08-24T03:33:39.660Z,3.72
2022-08-24T03:36:09.071Z,3.00
2022-08-24T03:38:37.894Z,2.80
2022-08-24T03:41:04.834Z,3.25
2022-08-24T03:43:46.793Z,2.60
2022-08-24T03:46:16.570Z,2.42
2022-08-24T03:48:44.501Z,2.47
2022-08-24T03:51:13.413Z,2.17
2022-08-24T03:53:42.900Z,2.42
2022-08-24T03:56:11.443Z,2.47
2022-08-24T03:58:41.654Z,2.03
2022-08-24T04:01:09.140Z,2.45
2022-08-24T04:03:37.388Z,2.33
2022-08-24T04:06:05.566Z,2.17
2022-08-24T04:08:33.143Z,2.22
2022-08-24T04:11:00.071Z,2.40
2022-08-24T04:13:26.785Z,2.30
2022-08-24T04:15:53.798Z,2.17
2022-08-24T04:18:20.468Z,2.33
2022-08-24T04:20:47.255Z,2.10
2022-08-24T04:23:15.334Z,2.17
2022-08-24T04:25:45.028Z,2.20
2022-08-24T04:28:13.633Z,2.22
2022-08-24T04:30:46.442Z,2.42
2022-08-24T04:33:14.440Z,2.50
2022-08-24T04:35:45.816Z,2.28
2022-08-24T04:38:12.733Z,2.60
2022-08-24T04:40:40.544Z,2.60
2022-08-24T04:43:08.743Z,2.55
2022-08-24T04:45:40.606Z,2.50
2022-08-24T04:48:07.984Z,2.70
2022-08-24T04:50:36.088Z,2.65
2022-08-24T04:53:04.554Z,2.25
2022-08-24T04:55:32.851Z,2.42
2022-08-24T04:57:59.554Z,2.30
2022-08-24T05:00:26.799Z,2.10
2022-08-24T05:02:53.538Z,2.63
2022-08-24T05:05:20.267Z,2.30
2022-08-24T05:07:46.978Z,2.13
2022-08-24T05:10:14.186Z,1.80
2022-08-24T05:12:41.091Z,1.98
2022-08-24T05:15:08.257Z,2.10
2022-08-24T05:17:34.959Z,2.03
2022-08-24T05:20:01.726Z,2.22
2022-08-24T05:22:28.443Z,2.45
2022-08-24T05:24:55.128Z,2.55
2022-08-24T05:27:22.709Z,2.58
2022-08-24T05:29:55.809Z,2.25
2022-08-24T05:32:22.872Z,2.28
2022-08-24T05:34:49.606Z,2.83
2022-08-24T05:37:16.310Z,2.78
2022-08-24T05:39:43.013Z,2.97
2022-08-24T05:42:09.823Z,2.80
2022-08-24T05:44:36.478Z,3.55
2022-08-24T05:47:03.495Z,2.28
2022-08-24T05:49:31.087Z,2.80
2022-08-24T05:51:59.082Z,3.65
2022-08-24T05:54:27.133Z,3.95
2022-08-24T05:56:54.921Z,3.50
2022-08-24T05:59:22.757Z,3.40
2022-08-24T06:01:49.896Z,3.80
2022-08-24T06:04:16.625Z,3.88
2022-08-24T06:06:43.285Z,2.80
2022-08-24T06:09:12.921Z,3.10
2022-08-24T06:11:41.051Z,3.60
2022-08-24T06:14:12.080Z,4.40
2022-08-24T06:16:41.834Z,4.40
2022-08-24T06:19:10.369Z,3.47
2022-08-24T06:21:38.120Z,4.22
2022-08-24T06:24:06.231Z,5.20
2022-08-24T06:26:51.543Z,3.47
2022-08-24T06:29:19.807Z,3.83
2022-08-24T06:31:50.860Z,3.92
2022-08-24T06:34:23.273Z,3.55
2022-08-24T06:36:50.326Z,3.63
2022-08-24T06:39:17.519Z,4.43
2022-08-24T06:41:45.124Z,4.70
2022-08-24T06:44:12.479Z,4.30
2022-08-24T06:46:39.325Z,4.72
2022-08-24T06:49:06.133Z,3.60
2022-08-24T06:51:32.974Z,4.43
2022-08-24T06:54:00.505Z,4.53
2022-08-24T06:56:27.447Z,6.30
2022-08-24T06:58:54.359Z,7.82
2022-08-24T07:01:24.510Z,12.25
2022-08-24T07:03:51.742Z,10.65
2022-08-24T07:06:19.161Z,8.52
2022-08-24T07:08:46.298Z,8.80
2022-08-24T07:11:18.207Z,6.85
2022-08-24T07:13:47.487Z,5.20
2022-08-24T07:16:19.594Z,4.20
2022-08-24T07:18:49.716Z,4.55
2022-08-24T07:21:19.846Z,4.05
2022-08-24T07:23:48.557Z,5.18
2022-08-24T07:26:22.869Z,4.13
2022-08-24T07:28:59.497Z,4.30
2022-08-24T07:31:26.792Z,3.60
2022-08-24T07:33:53.498Z,4.00
2022-08-24T07:36:22.025Z,3.35
2022-08-24T07:38:52.811Z,3.40
2022-08-24T07:41:47.016Z,3.15
2022-08-24T07:44:08.808Z,3.83
2022-08-24T07:46:36.205Z,3.38
2022-08-24T07:49:11.034Z,3.72
2022-08-24T07:51:44.756Z,3.45
2022-08-24T07:54:13.749Z,4.00
2022-08-24T07:56:41.615Z,3.80
2022-08-24T07:59:12.850Z,3.92
2022-08-24T08:01:40.550Z,4.00
2022-08-24T08:04:07.974Z,3.58
2022-08-24T08:06:35.213Z,4.18
2022-08-24T08:09:04.783Z,3.67
2022-08-24T08:11:31.975Z,3.40
2022-08-24T08:13:58.701Z,3.38
2022-08-24T08:16:26.408Z,4.22
2022-08-24T08:19:09.403Z,3.78
2022-08-24T08:22:01.087Z,4.13
2022-08-24T08:24:27.981Z,3.75
2022-08-24T08:26:54.873Z,4.20
2022-08-24T08:29:21.602Z,4.18
2022-08-24T08:31:48.397Z,5.00
2022-08-24T08:34:15.617Z,4.95
2022-08-24T08:36:42.941Z,4.20
2022-08-24T08:39:13.469Z,4.10
2022-08-24T08:41:52.242Z,3.92
2022-08-24T08:44:45.561Z,4.70
2022-08-24T08:47:30.705Z,4.28
2022-08-24T08:50:15.649Z,3.28
2022-08-24T08:53:10.099Z,3.65
2022-08-24T08:55:45.528Z,2.60
2022-08-24T08:58:20.651Z,2.80
2022-08-24T09:01:04.758Z,2.40
2022-08-24T09:03:44.669Z,2.65
2022-08-24T09:06:22.756Z,2.63
2022-08-24T09:08:57.626Z,2.20
2022-08-24T09:14:48.243Z,1.95
2022-08-24T09:17:33.530Z,1.77
2022-08-24T09:20:12.231Z,2.25
2022-08-24T09:22:43.656Z,2.03
2022-08-24T09:25:26.671Z,2.22
2022-08-24T09:28:14.666Z,2.85
2022-08-24T09:30:47.542Z,2.40
2022-08-24T09:33:14.204Z,2.50
2022-08-24T09:36:08.174Z,1.85
2022-08-24T09:38:56.539Z,2.22
2022-08-24T09:41:53.723Z,2.83
2022-08-24T09:44:39.439Z,2.22
2022-08-24T09:47:09.449Z,2.70
2022-08-24T09:50:30.045Z,3.35
2022-08-24T09:53:34.121Z,2.30
2022-08-24T09:56:05.130Z,2.60
2022-08-24T09:59:07.137Z,2.97
2022-08-24T10:01:50.878Z,2.03
2022-08-24T10:04:33.021Z,2.00
2022-08-24T10:07:16.121Z,3.22
2022-08-24T10:09:54.157Z,2.95
2022-08-24T10:12:23.973Z,3.05
2022-08-24T10:14:54.611Z,3.00
2022-08-24T10:18:00.405Z,3.03
2022-08-24T10:21:02.426Z,2.25
2022-08-24T10:23:49.907Z,5.00
2022-08-24T10:26:38.598Z,3.13
2022-08-24T10:29:31.482Z,3.35
2022-08-24T10:32:19.555Z,2.83
2022-08-24T10:35:13.798Z,2.75
2022-08-24T10:38:30.279Z,2.95
2022-08-24T10:41:05.783Z,2.78
2022-08-24T10:43:43.057Z,2.88
2022-08-24T10:46:24.906Z,2.42
2022-08-24T10:49:17.698Z,1.88
2022-08-24T10:51:47.823Z,2.20
2022-08-24T10:54:15.155Z,2.40
2022-08-24T10:56:59.087Z,3.40
2022-08-24T10:59:37.884Z,2.88
2022-08-24T11:02:12.932Z,3.25
2022-08-24T11:04:40.291Z,2.10
2022-08-24T11:07:09.953Z,2.22
2022-08-24T11:09:56.402Z,3.10
2022-08-24T11:12:41.586Z,2.30
2022-08-24T11:15:20.898Z,2.25
2022-08-24T11:18:00.381Z,2.15
2022-08-24T11:20:33.832Z,2.33
2022-08-24T11:23:06.151Z,2.03
2022-08-24T11:25:36.820Z,1.77
2022-08-24T11:28:26.729Z,2.63
2022-08-24T11:30:53.510Z,1.83
2022-08-24T11:33:49.598Z,2.42
2022-08-24T11:36:25.967Z,3.92
2022-08-24T11:39:29.337Z,4.30
2022-08-24T11:41:59.325Z,3.80
2022-08-24T11:44:35.955Z,3.15
2022-08-24T11:47:14.848Z,4.60
2022-08-24T11:50:07.917Z,4.97
2022-08-24T11:52:52.861Z,5.22
2022-08-24T11:55:30.658Z,4.35
2022-08-24T11:58:38.544Z,5.68
2022-08-24T12:01:08.687Z,4.07
2022-08-24T12:04:17.278Z,4.47
2022-08-24T12:06:59.513Z,7.60
2022-08-24T12:09:51.873Z,5.25
2022-08-24T12:12:52.843Z,4.18
2022-08-24T12:15:52.106Z,4.20
2022-08-24T12:18:56.223Z,5.40
2022-08-24T12:24:05.807Z,4.30
2022-08-24T12:26:44.423Z,4.45
2022-08-24T12:29:31.955Z,4.50
2022-08-24T12:32:05.493Z,4.75
2022-08-24T12:34:35.166Z,3.15
2022-08-24T12:37:16.484Z,5.38
2022-08-24T12:40:22.993Z,3.40
2022-08-24T12:42:55.949Z,4.47
2022-08-24T12:45:24.928Z,3.17
2022-08-24T12:47:58.516Z,3.70
2022-08-24T12:50:28.275Z,2.85
2022-08-24T12:53:13.402Z,3.10
2022-08-24T12:56:05.459Z,1.80
2022-08-24T12:58:35.941Z,2.92
2022-08-24T13:01:11.869Z,1.90
2022-08-24T13:03:42.466Z,1.73
2022-08-24T13:06:20.191Z,1.65
2022-08-24T13:08:50.823Z,1.15
2022-08-24T13:11:24.175Z,1.00
2022-08-24T13:13:57.415Z,1.00
2022-08-24T13:16:48.331Z,0.93
2022-08-24T13:19:28.420Z,1.17
2022-08-24T13:22:18.429Z,0.90
2022-08-24T13:24:47.148Z,0.90
2022-08-24T13:27:13.792Z,0.90
2022-08-24T13:29:50.047Z,0.80
2022-08-24T13:32:31.308Z,0.80
2022-08-24T13:34:59.231Z,0.80
2022-08-24T13:37:28.294Z,0.65
2022-08-24T13:40:08.490Z,0.82
2022-08-24T13:43:15.028Z,0.70
2022-08-24T13:45:46.585Z,0.88
2022-08-24T13:48:41.316Z,0.70
2022-08-24T13:51:30.007Z,0.80
2022-08-24T13:54:15.641Z,0.80
2022-08-24T13:57:14.110Z,0.63
2022-08-24T13:59:42.701Z,0.80
2022-08-24T14:02:16.047Z,0.80
2022-08-24T14:04:55.304Z,0.75
2022-08-24T14:07:28.127Z,0.73
2022-08-24T14:10:18.175Z,0.90
2022-08-24T14:12:56.134Z,0.70
2022-08-24T14:15:35.897Z,0.80
2022-08-24T14:18:14.848Z,0.68
2022-08-24T14:21:05.801Z,0.80
2022-08-24T14:23:52.102Z,0.60
2022-08-24T14:26:34.391Z,0.80
2022-08-24T14:29:19.512Z,0.80
2022-08-24T14:32:08.514Z,0.90
2022-08-24T14:34:40.949Z,0.82
2022-08-24T14:37:13.732Z,0.90
2022-08-24T14:40:17.598Z,1.00
2022-08-24T14:43:00.286Z,0.80
2022-08-24T14:45:42.999Z,1.00
2022-08-24T14:48:46.466Z,0.80
2022-08-24T14:51:31.810Z,0.73
2022-08-24T14:54:15.955Z,0.80
2022-08-24T14:57:13.289Z,1.00
2022-08-24T14:59:58.885Z,0.80
2022-08-24T15:02:53.512Z,1.02
2022-08-24T15:05:32.374Z,1.10
2022-08-24T15:08:06.169Z,0.80
2022-08-24T15:10:46.582Z,1.10
2022-08-24T15:13:29.250Z,0.93
2022-08-24T15:16:03.826Z,1.20
2022-08-24T15:19:00.595Z,0.80
2022-08-24T15:21:48.657Z,0.80
2022-08-24T15:24:42.481Z,1.10
2022-08-24T15:27:18.898Z,1.00
2022-08-24T15:29:50.744Z,1.05
2022-08-24T15:32:17.682Z,1.20
2022-08-24T15:34:53.316Z,1.10
2022-08-24T15:37:28.220Z,1.45
2022-08-24T15:39:55.106Z,0.90
2022-08-24T15:42:22.151Z,1.15
2022-08-24T15:44:51.030Z,1.10
2022-08-24T15:47:31.346Z,1.30
2022-08-24T15:50:22.590Z,1.30
2022-08-24T15:53:01.096Z,1.15
2022-08-24T15:55:32.626Z,1.20
2022-08-24T15:58:22.427Z,1.25
2022-08-24T16:01:08.100Z,1.20
2022-08-24T16:03:51.413Z,1.40
2022-08-24T16:06:23.146Z,1.20
2022-08-24T16:09:05.194Z,1.30
2022-08-24T16:11:39.974Z,1.20
2022-08-24T16:14:24.089Z,1.25
2022-08-24T16:16:54.506Z,1.20
2022-08-24T16:19:35.526Z,1.15
2022-08-24T16:22:10.756Z,0.98
2022-08-24T16:24:40.619Z,1.15
2022-08-24T16:27:16.957Z,0.93
2022-08-24T16:29:50.958Z,1.10
2022-08-24T16:32:22.862Z,1.50
2022-08-24T16:35:01.617Z,1.15
2022-08-24T16:37:28.286Z,1.30
2022-08-24T16:39:55.047Z,1.20
2022-08-24T16:42:25.672Z,1.27
2022-08-24T16:44:52.886Z,1.73
2022-08-24T16:47:20.949Z,1.60
2022-08-24T16:49:48.271Z,1.90
2022-08-24T16:52:15.817Z,1.70
2022-08-24T16:54:42.740Z,1.85
2022-08-24T16:57:16.897Z,1.52
2022-08-24T16:59:46.389Z,1.42
2022-08-24T17:02:14.211Z,1.75
2022-08-24T17:04:42.718Z,1.70
2022-08-24T17:07:15.389Z,1.65
2022-08-24T17:09:45.347Z,1.95
2022-08-24T17:12:12.390Z,1.40
2022-08-24T17:14:39.703Z,1.70
2022-08-24T17:17:09.890Z,1.50
2022-08-24T17:19:37.969Z,1.20
2022-08-24T17:22:06.073Z,1.25
2022-08-24T17:24:33.503Z,1.30
2022-08-24T17:27:01.210Z,1.30
2022-08-24T17:29:28.809Z,1.40
2022-08-24T17:31:55.718Z,1.60
2022-08-24T17:34:23.781Z,1.15
2022-08-24T17:36:53.426Z,1.10
2022-08-24T17:39:21.150Z,1.48
2022-08-24T17:41:48.011Z,1.30
2022-08-24T17:44:21.083Z,1.23
2022-08-24T17:49:18.347Z,1.38
2022-08-24T17:51:45.809Z,1.10
2022-08-24T17:54:13.464Z,1.17
2022-08-24T17:56:41.124Z,1.30
2022-08-24T17:59:20.055Z,1.10
2022-08-24T18:01:51.258Z,1.20
2022-08-24T18:04:20.875Z,1.25
2022-08-24T18:06:49.299Z,1.00
2022-08-24T18:09:22.503Z,1.20
2022-08-24T18:11:49.260Z,1.05
2022-08-24T18:14:16.046Z,1.10
2022-08-24T18:16:42.966Z,1.58
2022-08-24T18:19:19.593Z,1.00
2022-08-24T18:21:49.688Z,1.27
2022-08-24T18:24:16.790Z,1.40
2022-08-24T18:26:47.693Z,1.35
2022-08-24T18:29:21.537Z,1.45
2022-08-24T18:31:49.665Z,1.00
2022-08-24T18:34:25.916Z,1.08
2022-08-24T18:36:52.739Z,1.05
2022-08-24T18:39:20.351Z,1.20
2022-08-24T18:41:49.215Z,1.25
2022-08-24T18:44:21.706Z,1.10
2022-08-24T18:46:49.484Z,1.20
2022-08-24T18:49:17.959Z,1.10
2022-08-24T18:51:45.618Z,1.02
2022-08-24T18:54:19.224Z,1.05
2022-08-24T18:56:46.034Z,1.13
2022-08-24T18:59:15.214Z,1.02
2022-08-24T19:02:06.227Z,1.10
2022-08-24T19:04:34.098Z,0.90
2022-08-24T19:07:01.105Z,1.10
2022-08-24T19:09:32.041Z,1.17
2022-08-24T19:14:27.378Z,1.00
2022-08-24T19:16:54.029Z,1.10
2022-08-24T19:19:22.301Z,1.15
2022-08-24T19:21:49.490Z,1.17
2022-08-24T19:24:29.407Z,2.03
2022-08-24T19:27:01.864Z,1.20
2022-08-24T19:29:54.619Z,1.13
2022-08-24T19:32:22.686Z,1.20
2022-08-24T19:34:51.285Z,1.50
2022-08-24T19:37:18.163Z,0.93
2022-08-24T19:39:45.949Z,1.00
2022-08-24T19:42:16.191Z,1.20
2022-08-24T19:45:01.539Z,0.90
2022-08-24T19:47:28.583Z,1.20
2022-08-24T19:49:55.594Z,1.30
2022-08-24T19:52:23.051Z,1.20
2022-08-24T19:54:49.969Z,1.08
2022-08-24T19:57:34.029Z,0.98
2022-08-24T20:00:19.255Z,1.17
2022-08-24T20:02:51.356Z,0.90
2022-08-24T20:05:19.799Z,1.20
2022-08-24T20:07:47.473Z,1.20
2022-08-24T20:10:26.887Z,1.00
2022-08-24T20:12:54.273Z,1.30
2022-08-24T20:15:23.007Z,1.13
2022-08-24T20:17:50.505Z,0.88
2022-08-24T20:20:23.217Z,1.10
2022-08-24T20:22:50.567Z,1.58
2022-08-24T20:25:23.818Z,1.25
2022-08-24T20:28:02.179Z,1.15
2022-08-24T20:30:59.891Z,1.17
2022-08-24T20:33:27.753Z,1.30
2022-08-24T20:35:56.748Z,1.17
2022-08-24T20:38:23.820Z,1.30
2022-08-24T20:40:52.244Z,1.25
2022-08-24T20:43:19.769Z,1.13
2022-08-24T20:45:46.958Z,1.00
2022-08-24T20:48:14.019Z,1.30
2022-08-24T20:50:44.467Z,1.13
2022-08-24T20:53:12.236Z,1.20
2022-08-24T20:55:40.606Z,1.20
2022-08-24T20:58:08.178Z,1.35
2022-08-24T21:00:35.013Z,1.30
2022-08-24T21:03:01.760Z,1.40
2022-08-24T21:05:28.773Z,1.38
2022-08-24T21:07:57.992Z,1.40
2022-08-24T21:10:27.412Z,1.63
2022-08-24T21:12:54.897Z,1.48
2022-08-24T21:15:23.569Z,1.30
2022-08-24T21:17:50.459Z,1.27
2022-08-24T21:20:18.093Z,1.42
2022-08-24T21:22:46.285Z,1.38
2022-08-24T21:25:14.750Z,1.55
2022-08-24T21:27:44.236Z,1.63
2022-08-24T21:30:22.546Z,1.48
2022-08-24T21:33:08.208Z,1.23
2022-08-24T21:35:36.824Z,1.40
2022-08-24T21:38:04.438Z,1.33
2022-08-24T21:40:31.802Z,1.33
2022-08-24T21:42:58.797Z,1.50
2022-08-24T21:45:26.842Z,1.45
2022-08-24T21:47:54.085Z,1.85
2022-08-24T21:50:25.454Z,1.50
2022-08-24T21:52:54.116Z,1.08
2022-08-24T21:55:21.811Z,1.30
2022-08-24T21:57:49.420Z,1.60
2022-08-24T22:00:19.110Z,1.20
2022-08-24T22:02:48.234Z,1.40
2022-08-24T22:05:16.689Z,1.38
2022-08-24T22:07:44.175Z,1.40
2022-08-24T22:10:12.304Z,1.23
2022-08-24T22:12:41.882Z,1.30
2022-08-24T22:15:11.679Z,1.15
2022-08-24T22:17:39.265Z,1.10
2022-08-24T22:20:07.940Z,1.23
2022-08-24T22:22:46.091Z,1.27
2022-08-24T22:25:13.219Z,0.98
2022-08-24T22:27:44.072Z,1.10
2022-08-24T22:30:13.215Z,1.02
2022-08-24T22:32:39.945Z,1.02
2022-08-24T22:35:07.678Z,1.10
2022-08-24T22:37:34.865Z,1.00
2022-08-24T22:40:02.678Z,1.10
2022-08-24T22:42:30.621Z,1.30
2022-08-24T22:44:59.001Z,1.33
2022-08-24T22:47:27.038Z,1.40
2022-08-24T22:49:55.199Z,1.13
2022-08-24T22:52:22.155Z,1.33
2022-08-24T22:54:49.038Z,1.00
2022-08-24T22:57:17.664Z,1.60
2022-08-24T22:59:47.048Z,1.13
2022-08-24T23:02:16.170Z,1.17
2022-08-24T23:04:45.923Z,1.02
2022-08-24T23:07:13.162Z,1.45
2022-08-24T23:09:44.028Z,1.20
2022-08-24T23:12:14.845Z,1.00
2022-08-24T23:14:43.428Z,1.10
2022-08-24T23:17:10.514Z,1.17
2022-08-24T23:19:55.654Z,1.38
2022-08-24T23:22:22.349Z,1.30
2022-08-24T23:24:49.201Z,1.10
2022-08-24T23:27:17.769Z,1.10
2022-08-24T23:29:46.135Z,1.17
2022-08-24T23:32:14.175Z,1.20
2022-08-24T23:34:46.529Z,1.02
2022-08-24T23:37:14.017Z,1.42
2022-08-24T23:39:40.657Z,1.30
2022-08-24T23:42:07.710Z,0.90
2022-08-24T23:44:34.591Z,1.40
2022-08-24T23:47:02.049Z,0.98
2022-08-24T23:49:30.186Z,1.23
2022-08-24T23:51:57.536Z,1.05
2022-08-24T23:54:24.898Z,1.27
2022-08-24T23:56:54.801Z,1.00
2022-08-24T23:59:27.803Z,0.90
